Hlavní strana
METAR-TAF:

METAR-TAF

Letiště :

Lecce, Itálie

zeměpisná šířka: 40-14N, zeměpisná délka: 018-09E, výška: 48 m

Aktuální stav počasí

Zpráva byla vytvořena před 54 minutami, v 07:55 UTC
Jižní vítr 5 kt
Teplota 21°C
Vlhkost vzduchu 64%
Tlak 1019 hPa
Viditelnost 10 km a více
Žádná oblačnost pod 1500 m, nevyskytují se cumulonimby.

METAR: LIBN 260755Z 17005KT CAVOK 21/14 Q1019 RMK SCT SCT200 VIS MIN 9999 WIND THR14 16005KT WIND THR32 16004KT BLU

Čas: 10:49 (08:49 UTC)

Předpověď počasí

Zpráva byla vytvořena před 49 minutami, v 08:00 UTC
Předpověď platná od 26 v 09 UTC do 26 v 18 UTC
Jižní vítr 7 kt
Viditelnost 10 km a více
Skoro jasno ve výšce 3000 ft

TAF: LIBN 260800Z 2609/2618 18007KT 9999 FEW030

Stav a předpovědi počasí z více než 4 000 letišť (zprávy METAR a TAF).

Červené a žluté tečky na mapě představují dostupné meteorologické stanice.

Když kurzor umístíte na tečku, zobrazí se název stanice.

Pak kliknutím zobrazíte stav a předpověď počasí.

Chcete-li změnit mapu, kliknutím na zelené tlačítko se znaménkem +mapu přiblížíte, kliknutím na zelené tlačítko se znaménkem – mapu oddálíte a kliknutím na zelené šipky přejdete na sousední mapy.


METAR-TAF: